createdAt,value
2018-11-22T00:01:50.233Z,30.60
2018-11-22T00:04:17.543Z,22.60
2018-11-22T00:06:44.807Z,19.73
2018-11-22T00:09:12.097Z,21.52
2018-11-22T00:11:40.073Z,21.87
2018-11-22T00:14:07.979Z,18.95
2018-11-22T00:16:35.746Z,22.62
2018-11-22T00:19:03.273Z,26.27
2018-11-22T00:21:31.116Z,25.27
2018-11-22T00:23:58.994Z,16.82
2018-11-22T00:26:27.768Z,27.77
2018-11-22T00:28:55.258Z,27.32
2018-11-22T00:31:22.866Z,23.98
2018-11-22T00:33:50.360Z,21.25
2018-11-22T00:36:17.868Z,21.35
2018-11-22T00:38:45.716Z,20.97
2018-11-22T00:41:13.642Z,20.70
2018-11-22T00:43:41.110Z,17.73
2018-11-22T00:46:09.255Z,22.82
2018-11-22T00:48:37.017Z,19.85
2018-11-22T00:51:04.558Z,22.20
2018-11-22T00:53:32.384Z,25.08
2018-11-22T00:56:00.255Z,22.40
2018-11-22T00:58:28.088Z,18.65
2018-11-22T01:00:55.306Z,24.02
2018-11-22T01:03:23.100Z,31.12
2018-11-22T01:05:50.315Z,30.27
2018-11-22T01:08:18.102Z,32.55
2018-11-22T01:10:45.447Z,21.93
2018-11-22T01:13:13.571Z,26.62
2018-11-22T01:15:41.159Z,30.90
2018-11-22T01:18:08.474Z,25.05
2018-11-22T01:20:35.955Z,17.65
2018-11-22T01:23:03.749Z,19.80
2018-11-22T01:25:31.854Z,23.50
2018-11-22T01:27:59.090Z,23.75
2018-11-22T01:30:26.884Z,21.97
2018-11-22T01:32:55.315Z,23.07
2018-11-22T01:35:23.472Z,24.00
2018-11-22T01:37:51.333Z,18.23
2018-11-22T01:40:20.226Z,21.40
2018-11-22T01:42:48.096Z,20.17
2018-11-22T01:45:16.760Z,18.27
2018-11-22T01:47:44.245Z,20.23
2018-11-22T01:50:13.102Z,23.22
2018-11-22T01:52:40.650Z,24.63
2018-11-22T01:55:09.921Z,24.07
2018-11-22T01:57:38.186Z,21.23
2018-11-22T02:00:08.667Z,22.65
2018-11-22T02:02:36.148Z,24.02
2018-11-22T02:05:04.396Z,24.55
2018-11-22T02:07:31.905Z,21.70
2018-11-22T02:09:59.115Z,28.52
2018-11-22T02:12:26.901Z,19.92
2018-11-22T02:14:55.032Z,20.25
2018-11-22T02:17:22.545Z,22.30
2018-11-22T02:19:50.915Z,23.50
2018-11-22T02:22:18.506Z,25.45
2018-11-22T02:24:45.990Z,23.40
2018-11-22T02:27:13.782Z,29.10
2018-11-22T02:29:41.279Z,25.43
2018-11-22T02:32:08.765Z,27.48
2018-11-22T02:34:35.996Z,32.05
2018-11-22T02:37:03.475Z,33.18
2018-11-22T02:39:31.357Z,32.23
2018-11-22T02:41:58.830Z,33.25
2018-11-22T02:44:26.637Z,36.45
2018-11-22T02:46:54.122Z,31.48
2018-11-22T02:49:22.170Z,35.25
2018-11-22T02:51:49.778Z,33.92
2018-11-22T02:54:17.621Z,35.83
2018-11-22T02:56:45.417Z,33.60
2018-11-22T02:59:12.605Z,37.45
2018-11-22T03:01:40.177Z,36.98
2018-11-22T03:04:07.653Z,37.85
2018-11-22T03:06:35.160Z,35.20
2018-11-22T03:09:03.798Z,41.95
2018-11-22T03:11:31.716Z,35.23
2018-11-22T03:13:59.526Z,35.55
2018-11-22T03:16:27.044Z,33.28
2018-11-22T03:18:55.067Z,38.05
2018-11-22T03:21:22.595Z,39.15
2018-11-22T03:23:50.372Z,35.48
2018-11-22T03:26:17.840Z,38.45
2018-11-22T03:28:45.069Z,37.50
2018-11-22T03:31:12.571Z,38.20
2018-11-22T03:33:40.089Z,36.58
2018-11-22T03:36:07.307Z,37.30
2018-11-22T03:38:35.374Z,42.50
2018-11-22T03:41:02.870Z,33.63
2018-11-22T03:43:30.098Z,33.40
2018-11-22T03:45:58.155Z,40.73
2018-11-22T03:48:26.243Z,41.20
2018-11-22T03:50:53.934Z,35.13
2018-11-22T03:53:21.138Z,40.33
2018-11-22T03:55:49.036Z,37.13
2018-11-22T03:58:16.856Z,40.73
2018-11-22T04:00:44.685Z,38.65
2018-11-22T04:03:12.194Z,35.43
2018-11-22T04:05:39.700Z,39.90
2018-11-22T04:08:07.212Z,37.98
2018-11-22T04:10:34.736Z,43.70
2018-11-22T04:13:02.237Z,38.20
2018-11-22T04:15:30.006Z,39.48
2018-11-22T04:17:57.376Z,47.60
2018-11-22T04:20:26.393Z,38.92
2018-11-22T04:22:53.894Z,41.95
2018-11-22T04:25:22.090Z,39.92
2018-11-22T04:27:50.487Z,40.88
2018-11-22T04:30:32.092Z,39.55
2018-11-22T04:32:59.899Z,37.20
2018-11-22T04:35:27.324Z,40.48
2018-11-22T04:37:55.220Z,43.38
2018-11-22T04:40:24.106Z,41.20
2018-11-22T04:42:52.544Z,35.73
2018-11-22T04:45:20.702Z,44.23
2018-11-22T04:47:49.949Z,39.88
2018-11-22T04:50:18.872Z,41.13
2018-11-22T04:52:46.684Z,39.50
2018-11-22T04:55:14.242Z,40.65
2018-11-22T04:57:41.802Z,38.73
2018-11-22T05:00:10.999Z,42.17
2018-11-22T05:02:38.801Z,39.60
2018-11-22T05:05:07.485Z,41.15
2018-11-22T05:07:35.035Z,40.20
2018-11-22T05:10:03.121Z,45.95
2018-11-22T05:12:30.618Z,44.27
2018-11-22T05:14:58.495Z,37.10
2018-11-22T05:17:26.291Z,31.77
2018-11-22T05:19:53.501Z,37.08
2018-11-22T05:22:21.019Z,43.25
2018-11-22T05:24:48.809Z,39.60
2018-11-22T05:27:16.654Z,37.70
2018-11-22T05:29:45.414Z,38.98
2018-11-22T05:32:12.893Z,39.50
2018-11-22T05:34:40.705Z,40.05
2018-11-22T05:37:09.005Z,39.75
2018-11-22T05:39:36.803Z,40.85
2018-11-22T05:42:04.743Z,40.28
2018-11-22T05:44:31.975Z,41.73
2018-11-22T05:47:02.633Z,44.50
2018-11-22T05:49:27.328Z,43.35
2018-11-22T05:51:55.395Z,38.50
2018-11-22T05:54:22.618Z,45.25
2018-11-22T05:56:50.410Z,43.65
2018-11-22T05:59:17.942Z,38.23
2018-11-22T06:01:46.039Z,45.05
2018-11-22T06:04:13.807Z,35.88
2018-11-22T06:06:41.598Z,42.15
2018-11-22T06:09:10.127Z,38.55
2018-11-22T06:11:37.961Z,40.38
2018-11-22T06:14:05.801Z,42.43
2018-11-22T06:16:33.291Z,39.15
2018-11-22T06:19:00.881Z,43.95
2018-11-22T06:21:28.076Z,39.05
2018-11-22T06:23:55.667Z,39.20
2018-11-22T06:26:23.453Z,35.58
2018-11-22T06:28:50.987Z,38.50
2018-11-22T06:31:18.260Z,50.05
2018-11-22T06:33:46.065Z,37.75
2018-11-22T06:36:13.593Z,41.37
2018-11-22T06:38:41.076Z,37.05
2018-11-22T06:41:08.328Z,33.45
2018-11-22T06:43:36.083Z,38.40
2018-11-22T06:46:04.017Z,39.63
2018-11-22T06:48:31.607Z,42.90
2018-11-22T06:50:59.504Z,44.88
2018-11-22T06:53:27.045Z,40.75
2018-11-22T06:55:54.298Z,44.65
2018-11-22T06:58:21.788Z,40.55
2018-11-22T07:00:49.885Z,41.83
2018-11-22T07:03:17.399Z,44.05
2018-11-22T07:05:45.258Z,37.05
2018-11-22T07:08:13.127Z,44.83
2018-11-22T07:10:40.716Z,37.38
2018-11-22T07:13:08.313Z,47.10
2018-11-22T07:15:36.370Z,38.23
2018-11-22T07:18:03.967Z,36.70
2018-11-22T07:20:32.361Z,41.25
2018-11-22T07:23:01.629Z,43.25
2018-11-22T07:25:29.254Z,41.95
2018-11-22T07:27:56.805Z,41.30
2018-11-22T07:30:28.559Z,39.98
2018-11-22T07:32:56.294Z,43.80
2018-11-22T07:35:25.126Z,40.48
2018-11-22T07:37:52.924Z,46.30
2018-11-22T07:40:21.937Z,38.33
2018-11-22T12:16:59.086Z,24.32
2018-11-22T12:19:27.079Z,26.07
2018-11-22T12:21:54.777Z,26.93
2018-11-22T12:24:22.506Z,27.85
2018-11-22T12:26:50.225Z,26.82
2018-11-22T12:29:17.959Z,27.32
2018-11-22T12:31:45.718Z,30.32
2018-11-22T12:34:15.053Z,29.45
2018-11-22T12:37:20.721Z,26.50
2018-11-22T12:39:48.390Z,30.85
2018-11-22T12:42:16.114Z,24.90
2018-11-22T12:44:43.853Z,25.80
2018-11-22T12:47:11.554Z,25.45
2018-11-22T12:49:39.320Z,27.70
2018-11-22T12:52:07.041Z,24.45
2018-11-22T12:54:35.411Z,27.65
2018-11-22T12:57:03.178Z,25.45
2018-11-22T12:59:30.863Z,28.32
2018-11-22T13:01:58.667Z,26.07
2018-11-22T13:04:26.385Z,24.55
2018-11-22T13:06:54.110Z,35.23
2018-11-22T13:09:22.871Z,23.67
2018-11-22T13:11:49.601Z,26.80
2018-11-22T13:14:17.290Z,25.05
2018-11-22T13:16:45.006Z,27.93
2018-11-22T13:19:12.715Z,24.80
2018-11-22T13:21:40.516Z,25.72
2018-11-22T13:24:08.241Z,25.90
2018-11-22T13:26:35.974Z,28.80
2018-11-22T13:29:03.750Z,26.10
2018-11-22T13:31:31.505Z,30.75
2018-11-22T13:33:59.226Z,33.05
2018-11-22T13:36:27.026Z,28.35
2018-11-22T13:38:54.742Z,31.97
2018-11-22T13:41:22.459Z,27.75
2018-11-22T13:43:50.198Z,29.48
2018-11-22T13:46:17.957Z,33.42
2018-11-22T13:48:45.682Z,29.02
2018-11-22T13:51:13.394Z,26.27
2018-11-22T13:53:41.195Z,28.67
2018-11-22T13:56:08.941Z,24.43
2018-11-22T13:58:36.782Z,28.60
2018-11-22T14:01:04.659Z,29.37
2018-11-22T14:03:32.398Z,27.45
2018-11-22T14:06:00.107Z,29.10
2018-11-22T14:08:27.845Z,24.37
2018-11-22T14:10:58.533Z,26.82
2018-11-22T14:13:23.330Z,24.20
2018-11-22T14:15:51.053Z,26.73
2018-11-22T14:18:18.862Z,26.70
2018-11-22T14:20:46.594Z,27.52
2018-11-22T14:23:14.330Z,33.92
2018-11-22T14:25:45.071Z,26.20
2018-11-22T14:28:09.878Z,25.52
2018-11-22T14:30:37.577Z,28.15
2018-11-22T14:33:05.367Z,27.37
2018-11-22T14:35:33.126Z,25.62
2018-11-22T14:38:00.849Z,30.70
2018-11-22T14:40:30.014Z,27.07
2018-11-22T14:42:57.818Z,32.28
2018-11-22T14:45:26.258Z,32.90
2018-11-22T14:47:55.239Z,31.02
2018-11-22T14:50:28.859Z,32.90
2018-11-22T14:53:06.566Z,34.05
2018-11-22T14:55:34.332Z,26.40
2018-11-22T14:58:02.062Z,27.40
2018-11-22T15:00:29.810Z,23.52
2018-11-22T15:02:57.533Z,26.80
2018-11-22T15:05:25.268Z,26.42
2018-11-22T15:07:53.246Z,27.10
2018-11-22T15:10:21.023Z,23.25
2018-11-22T15:12:49.230Z,27.30
2018-11-22T15:15:18.625Z,25.82
2018-11-22T15:17:46.406Z,24.10
2018-11-22T15:20:16.613Z,30.55
2018-11-22T15:22:45.239Z,27.90
2018-11-22T15:25:17.463Z,29.60
2018-11-22T15:27:45.476Z,30.05
2018-11-22T15:30:15.667Z,29.18
2018-11-22T15:32:43.406Z,27.58
2018-11-22T15:35:17.802Z,26.27
2018-11-22T15:37:45.972Z,30.27
2018-11-22T15:40:16.889Z,30.55
2018-11-22T15:42:45.602Z,25.75
2018-11-22T15:45:14.689Z,28.70
2018-11-22T15:47:42.773Z,28.00
2018-11-22T15:50:20.415Z,27.42
2018-11-22T15:52:48.190Z,25.15
2018-11-22T15:55:20.838Z,32.45
2018-11-22T15:57:45.706Z,32.23
2018-11-22T16:00:16.157Z,31.17
2018-11-22T16:02:44.810Z,28.75
2018-11-22T16:05:13.085Z,27.13
2018-11-22T16:07:41.550Z,21.93
2018-11-22T16:10:12.418Z,31.68
2018-11-22T16:12:40.134Z,34.00
2018-11-22T16:15:13.467Z,27.60
2018-11-22T16:17:41.740Z,28.65
2018-11-22T16:20:09.698Z,30.75
2018-11-22T16:22:37.573Z,31.37
2018-11-22T16:25:06.989Z,28.75
2018-11-22T16:27:34.787Z,27.10
2018-11-22T16:30:02.798Z,33.33
2018-11-22T16:32:30.562Z,34.27
2018-11-22T16:34:58.283Z,30.57
2018-11-22T16:37:26.007Z,31.82
2018-11-22T16:39:54.255Z,29.23
2018-11-22T16:42:21.530Z,30.85
2018-11-22T16:44:49.303Z,39.03
2018-11-22T16:47:17.150Z,29.20
2018-11-22T16:49:44.944Z,32.38
2018-11-22T16:52:12.748Z,27.48
2018-11-22T16:54:40.470Z,29.30
2018-11-22T16:57:08.231Z,30.57
2018-11-22T16:59:35.950Z,29.20
2018-11-22T17:02:03.730Z,28.92
2018-11-22T17:04:31.450Z,32.33
2018-11-22T17:06:59.222Z,30.55
2018-11-22T17:09:27.070Z,32.03
2018-11-22T17:11:54.841Z,29.32
2018-11-22T17:14:22.583Z,28.50
2018-11-22T17:16:50.345Z,26.73
2018-11-22T17:19:18.134Z,32.75
2018-11-22T17:21:45.909Z,29.18
2018-11-22T17:24:13.667Z,27.77
2018-11-22T17:26:41.398Z,29.67
2018-11-22T17:29:09.153Z,28.57
2018-11-22T17:31:36.958Z,28.73
2018-11-22T17:34:05.071Z,33.65
2018-11-22T17:36:32.842Z,28.07
2018-11-22T17:39:00.602Z,30.35
2018-11-22T17:41:28.314Z,30.32
2018-11-22T17:43:56.127Z,28.40
2018-11-22T17:46:23.860Z,32.88
2018-11-22T17:48:51.862Z,35.73
2018-11-22T17:51:19.619Z,32.03
2018-11-22T17:53:47.367Z,33.88
2018-11-22T17:56:15.086Z,32.23
2018-11-22T17:58:42.868Z,44.53
2018-11-22T18:01:14.548Z,39.35
2018-11-22T18:03:38.442Z,37.83
2018-11-22T18:06:06.226Z,32.25
2018-11-22T18:08:33.965Z,30.20
2018-11-22T18:11:01.707Z,30.70
2018-11-22T18:13:29.483Z,42.90
2018-11-22T18:15:58.240Z,30.70
2018-11-22T18:18:26.597Z,37.15
2018-11-22T18:20:54.366Z,35.15
2018-11-22T18:23:22.104Z,37.42
2018-11-22T18:25:49.847Z,36.60
2018-11-22T18:28:17.622Z,34.75
2018-11-22T18:30:45.408Z,34.90
2018-11-22T18:33:13.182Z,33.20
2018-11-22T18:35:40.939Z,28.00
2018-11-22T18:38:08.655Z,41.68
2018-11-22T18:40:37.930Z,37.23
2018-11-22T18:43:05.785Z,33.65
2018-11-22T18:45:34.906Z,33.83
2018-11-22T18:48:03.675Z,32.98
2018-11-22T18:50:32.490Z,35.52
2018-11-22T18:53:00.249Z,36.42
2018-11-22T18:55:28.050Z,31.05
2018-11-22T18:57:55.779Z,35.25
2018-11-22T19:00:31.567Z,35.50
2018-11-22T19:03:01.033Z,32.25
2018-11-22T19:05:28.858Z,32.73
2018-11-22T19:07:57.375Z,38.42
2018-11-22T19:10:26.327Z,38.98
2018-11-22T19:12:55.341Z,39.10
2018-11-22T19:15:24.689Z,40.88
2018-11-22T19:17:52.829Z,36.98
2018-11-22T19:20:23.170Z,36.38
2018-11-22T19:22:51.621Z,31.90
2018-11-22T19:25:19.984Z,32.70
2018-11-22T19:27:47.981Z,28.40
2018-11-22T19:30:17.997Z,31.93
2018-11-22T19:32:46.734Z,31.23
2018-11-22T19:35:15.571Z,32.75
2018-11-22T19:37:43.665Z,32.88
2018-11-22T19:40:15.918Z,35.10
2018-11-22T19:42:44.723Z,28.90
2018-11-22T19:45:14.099Z,37.90
2018-11-22T19:47:41.884Z,34.45
2018-11-22T19:50:12.009Z,31.62
2018-11-22T19:52:39.733Z,29.18
2018-11-22T19:55:10.088Z,30.92
2018-11-22T19:57:37.846Z,29.10
2018-11-22T20:00:08.007Z,31.85
2018-11-22T20:02:35.745Z,37.70
2018-11-22T20:05:03.722Z,26.97
2018-11-22T20:07:31.474Z,31.45
2018-11-22T20:09:59.198Z,32.10
2018-11-22T20:12:26.941Z,31.85
2018-11-22T20:14:54.678Z,34.90
2018-11-22T20:17:22.402Z,32.35
2018-11-22T20:19:50.221Z,29.23
2018-11-22T20:22:17.967Z,34.15
2018-11-22T20:24:45.726Z,35.40
2018-11-22T20:27:13.499Z,36.25
2018-11-22T20:29:41.238Z,34.10
2018-11-22T20:32:08.983Z,26.07
2018-11-22T20:34:36.750Z,31.70
2018-11-22T20:37:04.560Z,29.63
2018-11-22T20:39:32.315Z,29.98
2018-11-22T20:42:00.066Z,30.02
2018-11-22T20:44:27.838Z,27.42
2018-11-22T20:46:55.592Z,31.73
2018-11-22T20:49:23.433Z,30.62
2018-11-22T20:51:51.189Z,33.42
2018-11-22T20:54:18.937Z,34.50
2018-11-22T20:56:46.677Z,29.50
2018-11-22T20:59:14.430Z,29.42
2018-11-22T21:01:42.164Z,30.40
2018-11-22T21:04:09.910Z,31.15
2018-11-22T21:06:37.618Z,25.15
2018-11-22T21:09:08.688Z,33.83
2018-11-22T21:11:43.201Z,35.00
2018-11-22T21:14:05.643Z,30.52
2018-11-22T21:16:33.373Z,32.42
2018-11-22T21:19:01.127Z,27.95
2018-11-22T21:21:28.978Z,32.33
2018-11-22T21:23:56.726Z,31.33
2018-11-22T21:26:24.656Z,33.53
2018-11-22T21:28:52.742Z,33.90
2018-11-22T21:31:20.486Z,35.15
2018-11-22T21:33:48.971Z,33.50
2018-11-22T21:36:16.807Z,42.25
2018-11-22T21:38:44.770Z,37.70
2018-11-22T21:41:12.523Z,33.80
2018-11-22T21:43:40.451Z,40.83
2018-11-22T21:46:08.230Z,35.92
2018-11-22T21:48:35.958Z,37.48
2018-11-22T21:51:03.742Z,33.58
2018-11-22T21:53:31.891Z,32.60
2018-11-22T21:55:59.674Z,34.25
2018-11-22T21:58:27.431Z,31.57
2018-11-22T22:00:55.190Z,35.70
2018-11-22T22:03:22.954Z,39.92
2018-11-22T22:05:50.813Z,36.50
2018-11-22T22:08:18.541Z,40.90
2018-11-22T22:10:46.299Z,34.38
2018-11-22T22:13:14.059Z,34.70
2018-11-22T22:15:41.814Z,35.25
2018-11-22T22:18:09.650Z,32.65
2018-11-22T22:20:37.654Z,33.05
2018-11-22T22:23:05.487Z,29.15
2018-11-22T22:25:33.265Z,29.82
2018-11-22T22:28:01.418Z,29.25
2018-11-22T22:30:30.603Z,31.00
2018-11-22T22:33:01.005Z,35.90
2018-11-22T22:35:28.762Z,28.83
2018-11-22T22:37:56.474Z,33.38
2018-11-22T22:40:25.658Z,31.10
2018-11-22T22:42:54.471Z,31.77
2018-11-22T22:45:23.288Z,31.75
2018-11-22T22:47:51.550Z,28.90
2018-11-22T22:50:21.442Z,32.23
2018-11-22T22:52:50.476Z,27.42
2018-11-22T22:55:18.237Z,33.13
2018-11-22T22:57:45.998Z,30.10
2018-11-22T23:00:22.314Z,31.40
2018-11-22T23:02:52.294Z,27.60
2018-11-22T23:05:20.653Z,30.70
2018-11-22T23:07:48.473Z,34.27
2018-11-22T23:10:16.880Z,34.95
2018-11-22T23:12:44.647Z,29.80
2018-11-22T23:15:14.455Z,35.75
2018-11-22T23:17:42.522Z,30.60
2018-11-22T23:20:14.715Z,34.45
2018-11-22T23:22:42.984Z,32.67
2018-11-22T23:25:11.703Z,30.50
2018-11-22T23:27:39.835Z,34.95
2018-11-22T23:30:18.334Z,33.30
2018-11-22T23:32:47.133Z,29.98
2018-11-22T23:35:15.122Z,32.23
2018-11-22T23:37:43.165Z,34.30
2018-11-22T23:40:12.805Z,31.77
2018-11-22T23:42:40.858Z,29.35
2018-11-22T23:45:10.215Z,35.92
2018-11-22T23:47:38.533Z,31.10
2018-11-22T23:50:09.193Z,32.48
2018-11-22T23:52:36.930Z,35.38
2018-11-22T23:55:05.322Z,34.27
2018-11-22T23:57:33.023Z,35.33
